createdAt,value
2019-04-20T00:00:40.159Z,45.31
2019-04-20T00:02:44.046Z,45.46
2019-04-20T00:04:51.467Z,45.66
2019-04-20T00:06:59.195Z,45.59
2019-04-20T00:09:13.978Z,45.43
2019-04-20T00:11:25.474Z,45.62
2019-04-20T00:13:38.388Z,45.85
2019-04-20T00:15:34.618Z,45.80
2019-04-20T00:17:48.626Z,46.04
2019-04-20T00:19:53.795Z,45.72
2019-04-20T00:22:15.652Z,46.00
2019-04-20T00:24:29.217Z,46.22
2019-04-20T00:27:04.683Z,46.47
2019-04-20T00:29:04.473Z,46.74
2019-04-20T00:31:11.155Z,46.78
2019-04-20T00:33:09.657Z,47.01
2019-04-20T00:35:08.264Z,46.84
2019-04-20T00:37:17.093Z,46.68
2019-04-20T00:39:23.993Z,46.97
2019-04-20T00:41:35.153Z,47.19
2019-04-20T00:43:41.705Z,46.99
2019-04-20T00:45:57.350Z,46.91
2019-04-20T00:48:03.431Z,46.79
2019-04-20T00:50:24.492Z,46.72
2019-04-20T00:52:44.484Z,46.57
2019-04-20T00:54:22.213Z,46.80
2019-04-20T00:56:29.063Z,46.81
2019-04-20T00:58:50.474Z,47.16
2019-04-20T01:01:08.292Z,47.15
2019-04-20T01:03:12.029Z,47.41
2019-04-20T01:05:19.985Z,47.33
2019-04-20T01:07:24.232Z,47.37
2019-04-20T01:09:39.179Z,47.53
2019-04-20T01:11:48.257Z,47.69
2019-04-20T01:14:00.173Z,48.02
2019-04-20T01:16:08.716Z,47.95
2019-04-20T01:18:14.019Z,48.25
2019-04-20T01:20:22.674Z,48.26
2019-04-20T01:22:35.265Z,48.23
2019-04-20T01:24:43.271Z,48.28
2019-04-20T01:26:51.638Z,48.15
2019-04-20T01:29:09.034Z,48.40
2019-04-20T01:31:15.690Z,48.63
2019-04-20T01:33:25.873Z,48.19
2019-04-20T01:35:38.268Z,48.19
2019-04-20T01:37:39.110Z,48.06
2019-04-20T01:39:43.470Z,47.90
2019-04-20T01:41:45.427Z,47.85
2019-04-20T01:43:52.348Z,48.07
2019-04-20T01:46:05.066Z,48.30
2019-04-20T01:48:08.335Z,48.40
2019-04-20T01:50:21.174Z,48.64
2019-04-20T01:52:29.881Z,48.65
2019-04-20T01:54:52.889Z,48.85
2019-04-20T01:56:54.949Z,49.03
2019-04-20T01:59:10.180Z,49.05
2019-04-20T02:01:19.185Z,49.26
2019-04-20T02:03:43.972Z,49.43
2019-04-20T02:05:56.487Z,49.22
2019-04-20T02:07:57.437Z,49.66
2019-04-20T02:10:11.727Z,49.90
2019-04-20T02:12:23.597Z,50.30
2019-04-20T02:14:35.064Z,50.34
2019-04-20T02:16:39.210Z,50.35
2019-04-20T02:18:58.925Z,50.44
2019-04-20T02:21:12.201Z,50.16
2019-04-20T02:23:10.658Z,49.71
2019-04-20T02:25:10.295Z,49.28
2019-04-20T02:27:20.605Z,49.63
2019-04-20T02:29:46.243Z,49.48
2019-04-20T02:32:19.919Z,49.64
2019-04-20T02:40:57.259Z,50.24
2019-04-20T02:43:09.608Z,50.65
2019-04-20T02:45:28.594Z,51.12
2019-04-20T02:47:35.749Z,52.20
2019-04-20T02:51:42.278Z,53.33
2019-04-20T02:54:12.984Z,53.90
2019-04-20T02:55:55.681Z,54.28
2019-04-20T02:58:03.460Z,54.78
2019-04-20T03:00:12.512Z,55.37
2019-04-20T03:02:06.050Z,55.68
2019-04-20T03:04:02.081Z,55.69
2019-04-20T03:06:20.736Z,56.02
2019-04-20T03:08:30.416Z,56.26
2019-04-20T03:10:52.484Z,56.25
2019-04-20T03:12:59.723Z,56.58
2019-04-20T03:14:55.266Z,57.05
2019-04-20T03:17:18.246Z,57.29
2019-04-20T03:19:17.457Z,57.32
2019-04-20T03:21:33.300Z,57.58
2019-04-20T03:23:42.818Z,57.93
2019-04-20T03:25:53.328Z,57.90
2019-04-20T03:28:00.922Z,58.13
2019-04-20T03:30:22.009Z,58.07
2019-04-20T03:32:57.921Z,58.29
2019-04-20T03:34:54.967Z,58.46
2019-04-20T03:36:42.864Z,58.57
2019-04-20T03:38:41.483Z,58.48
2019-04-20T03:40:45.318Z,58.21
2019-04-20T03:42:40.508Z,58.00
2019-04-20T03:44:53.816Z,58.29
2019-04-20T03:47:01.304Z,58.09
2019-04-20T03:49:22.354Z,58.24
2019-04-20T03:51:35.903Z,58.10
2019-04-20T03:53:46.264Z,58.25
2019-04-20T03:56:00.675Z,58.05
2019-04-20T03:58:10.780Z,57.79
2019-04-20T04:00:22.023Z,57.15
2019-04-20T04:02:54.404Z,56.78
2019-04-20T04:04:49.444Z,55.94
2019-04-20T04:06:47.047Z,56.00
2019-04-20T04:09:02.763Z,54.46
2019-04-20T04:11:16.256Z,53.66
2019-04-20T04:13:20.806Z,52.51
2019-04-20T04:15:27.750Z,51.89
2019-04-20T04:17:38.915Z,51.12
2019-04-20T04:19:51.176Z,50.75
2019-04-20T04:22:07.830Z,50.79
2019-04-20T04:24:14.348Z,50.71
2019-04-20T04:26:29.269Z,50.36
2019-04-20T04:28:31.173Z,49.85
2019-04-20T04:30:40.550Z,49.97
2019-04-20T04:33:29.434Z,49.51
2019-04-20T04:35:04.308Z,48.56
2019-04-20T04:37:13.215Z,48.39
2019-04-20T04:39:25.194Z,48.24
2019-04-20T04:41:36.801Z,47.77
2019-04-20T04:43:39.786Z,47.25
2019-04-20T04:45:31.683Z,45.06
2019-04-20T04:47:38.711Z,40.36
2019-04-20T04:49:55.227Z,35.79
2019-04-20T04:52:02.243Z,32.05
2019-04-20T04:54:13.734Z,28.98
2019-04-20T04:56:15.171Z,26.84
2019-04-20T04:58:21.487Z,25.46
2019-04-20T05:00:32.498Z,23.72
2019-04-20T05:02:41.872Z,23.36
2019-04-20T05:05:10.134Z,22.12
2019-04-20T05:07:11.513Z,21.43
2019-04-20T05:09:10.385Z,20.99
2019-04-20T05:11:17.193Z,20.42
2019-04-20T05:13:26.748Z,20.10
2019-04-20T05:15:48.446Z,19.23
2019-04-20T05:18:04.441Z,18.72
2019-04-20T05:20:12.365Z,18.39
2019-04-20T05:22:19.356Z,17.94
2019-04-20T05:24:29.267Z,17.64
2019-04-20T05:26:49.336Z,17.30
2019-04-20T05:28:48.573Z,16.81
2019-04-20T05:30:52.562Z,16.63
2019-04-20T05:33:03.133Z,16.74
2019-04-20T05:35:26.940Z,16.66
2019-04-20T05:37:46.958Z,16.43
2019-04-20T05:39:45.789Z,15.95
2019-04-20T05:41:50.397Z,15.65
2019-04-20T05:43:56.576Z,15.64
2019-04-20T05:46:03.223Z,15.01
2019-04-20T05:48:15.554Z,14.63
2019-04-20T05:50:29.281Z,14.35
2019-04-20T05:52:44.138Z,13.88
2019-04-20T05:54:48.982Z,13.23
2019-04-20T05:57:00.889Z,12.99
2019-04-20T05:58:59.914Z,13.00
2019-04-20T06:01:16.144Z,12.97
2019-04-20T06:03:18.487Z,12.96
2019-04-20T06:05:27.565Z,13.20
2019-04-20T06:07:38.020Z,13.30
2019-04-20T06:09:48.866Z,13.18
2019-04-20T06:12:07.776Z,13.19
2019-04-20T06:13:56.941Z,13.40
2019-04-20T06:16:20.023Z,13.06
2019-04-20T06:18:29.935Z,13.13
2019-04-20T06:21:02.323Z,13.23
2019-04-20T06:22:50.888Z,13.42
2019-04-20T06:27:21.500Z,13.87
2019-04-20T06:29:26.328Z,13.64
2019-04-20T06:31:42.551Z,13.72
2019-04-20T06:36:43.133Z,13.52
2019-04-20T06:38:59.820Z,14.11
2019-04-20T06:41:00.894Z,14.72
2019-04-20T06:43:05.124Z,14.47
2019-04-20T06:45:20.074Z,14.53
2019-04-20T06:47:24.411Z,14.44
2019-04-20T06:49:33.217Z,14.40
2019-04-20T06:51:47.428Z,14.04
2019-04-20T06:53:52.603Z,14.02
2019-04-20T06:56:17.222Z,14.18
2019-04-20T06:58:39.574Z,14.03
2019-04-20T07:00:36.881Z,14.04
2019-04-20T07:02:44.629Z,13.79
2019-04-20T07:07:07.054Z,12.42
2019-04-20T07:09:20.002Z,11.88
2019-04-20T07:11:18.342Z,12.06
2019-04-20T07:13:19.303Z,11.52
2019-04-20T07:15:29.136Z,10.72
2019-04-20T07:19:56.493Z,11.16
2019-04-20T07:22:25.069Z,11.68
2019-04-20T07:24:25.522Z,11.87
2019-04-20T07:26:35.643Z,12.25
2019-04-20T07:28:48.530Z,12.23
2019-04-20T07:30:51.991Z,12.33
2019-04-20T07:32:59.717Z,12.52
2019-04-20T07:35:08.459Z,11.41
2019-04-20T07:37:42.722Z,10.62
2019-04-20T07:39:37.904Z,10.16
2019-04-20T07:42:04.515Z,9.92
2019-04-20T07:44:01.158Z,10.58
2019-04-20T07:45:55.940Z,12.51
2019-04-20T07:48:13.696Z,14.56
2019-04-20T07:50:13.210Z,16.22
2019-04-20T07:52:04.370Z,17.55
2019-04-20T07:54:40.161Z,19.17
2019-04-20T07:56:42.531Z,20.08
2019-04-20T07:58:35.737Z,20.90
2019-04-20T08:01:09.039Z,21.66
2019-04-20T08:03:26.528Z,22.60
2019-04-20T08:05:24.594Z,23.44
2019-04-20T08:07:17.880Z,23.36
2019-04-20T08:09:34.905Z,23.29
2019-04-20T08:11:55.500Z,23.50
2019-04-20T08:14:08.732Z,23.63
2019-04-20T08:16:20.368Z,23.41
2019-04-20T08:18:27.180Z,24.09
2019-04-20T08:20:36.346Z,24.26
2019-04-20T08:22:42.197Z,24.82
2019-04-20T08:24:42.936Z,24.99
2019-04-20T08:26:45.380Z,25.09
2019-04-20T08:28:55.214Z,24.55
2019-04-20T08:31:19.584Z,25.43
2019-04-20T08:33:45.139Z,24.78
2019-04-20T08:35:52.569Z,24.40
2019-04-20T08:38:19.909Z,25.04
2019-04-20T08:40:07.482Z,25.24
2019-04-20T08:42:16.282Z,25.58
2019-04-20T08:44:46.942Z,25.78
2019-04-20T08:46:37.814Z,25.83
2019-04-20T08:48:40.880Z,25.88
2019-04-20T08:50:50.682Z,26.31
2019-04-20T08:55:07.635Z,26.64
2019-04-20T08:56:57.107Z,26.34
2019-04-20T08:59:02.297Z,26.21
2019-04-20T09:01:14.084Z,26.67
2019-04-20T09:03:25.380Z,27.27
2019-04-20T09:05:39.931Z,27.42
2019-04-20T09:07:50.106Z,27.23
2019-04-20T09:10:10.100Z,27.73
2019-04-20T09:12:13.567Z,27.20
2019-04-20T09:14:21.421Z,27.62
2019-04-20T09:16:38.786Z,27.11
2019-04-20T09:18:47.763Z,27.14
2019-04-20T09:20:58.462Z,27.42
2019-04-20T09:23:21.576Z,27.40
2019-04-20T09:27:38.383Z,26.52
2019-04-20T09:29:54.627Z,26.94
2019-04-20T09:32:06.731Z,26.54
2019-04-20T09:34:16.127Z,26.50
2019-04-20T09:36:40.541Z,26.59
2019-04-20T09:38:47.860Z,27.03
2019-04-20T09:41:09.128Z,25.98
2019-04-20T09:43:02.224Z,26.18
2019-04-20T09:45:18.109Z,26.35
2019-04-20T09:47:27.453Z,25.76
2019-04-20T09:49:40.230Z,25.59
2019-04-20T09:51:50.591Z,25.23
2019-04-20T09:53:54.993Z,25.45
2019-04-20T09:56:14.623Z,25.22
2019-04-20T09:58:21.309Z,25.04
2019-04-20T10:00:37.171Z,24.84
2019-04-20T10:02:32.813Z,24.71
2019-04-20T10:04:37.605Z,24.50
2019-04-20T10:06:45.565Z,24.69
2019-04-20T10:08:56.304Z,24.69
2019-04-20T10:11:01.517Z,23.46
2019-04-20T10:13:09.178Z,23.05
2019-04-20T10:15:20.971Z,22.98
2019-04-20T10:17:27.076Z,23.07
2019-04-20T10:19:35.707Z,22.97
2019-04-20T10:21:41.585Z,22.05
2019-04-20T10:23:48.426Z,22.24
2019-04-20T10:25:56.429Z,22.14
2019-04-20T10:28:03.477Z,22.01
2019-04-20T10:30:10.951Z,21.90
2019-04-20T10:32:17.976Z,21.92
2019-04-20T10:34:26.433Z,22.07
2019-04-20T10:36:39.585Z,22.09
2019-04-20T10:38:46.591Z,22.38
2019-04-20T10:41:03.306Z,22.25
2019-04-20T10:43:03.139Z,22.05
2019-04-20T10:45:10.909Z,22.42
2019-04-20T10:47:18.876Z,22.16
2019-04-20T10:49:27.066Z,22.39
2019-04-20T10:51:33.849Z,22.32
2019-04-20T10:53:40.553Z,22.08
2019-04-20T10:55:47.444Z,22.06
2019-04-20T10:57:55.482Z,22.45
2019-04-20T11:00:03.710Z,22.44
2019-04-20T11:02:12.167Z,22.46
2019-04-20T11:04:18.883Z,22.57
2019-04-20T11:06:26.818Z,22.80
2019-04-20T11:08:34.849Z,22.72
2019-04-20T11:10:55.469Z,22.37
2019-04-20T11:12:53.308Z,22.11
2019-04-20T11:15:00.642Z,21.67
2019-04-20T11:17:08.667Z,22.03
2019-04-20T11:19:15.736Z,21.92
2019-04-20T11:21:24.494Z,21.69
2019-04-20T11:23:32.011Z,21.97
2019-04-20T11:25:39.774Z,21.73
2019-04-20T11:27:47.984Z,21.77
2019-04-20T11:29:55.992Z,21.93
2019-04-20T11:32:03.170Z,21.84
2019-04-20T11:34:10.317Z,22.09
2019-04-20T11:36:17.215Z,21.62
2019-04-20T11:38:24.085Z,21.51
2019-04-20T11:40:31.045Z,21.09
2019-04-20T11:42:37.701Z,20.69
2019-04-20T11:44:44.821Z,20.70
2019-04-20T11:46:52.536Z,20.68
2019-04-20T11:48:59.585Z,20.46
2019-04-20T11:51:07.449Z,20.12
2019-04-20T11:53:15.304Z,19.62
2019-04-20T11:55:22.412Z,19.61
2019-04-20T11:57:29.330Z,19.44
2019-04-20T11:59:37.136Z,18.95
2019-04-20T12:02:05.897Z,18.62
2019-04-20T12:04:27.158Z,18.81
2019-04-20T12:06:23.151Z,18.99
2019-04-20T12:08:32.153Z,19.30
2019-04-20T12:10:39.357Z,19.60
2019-04-20T12:12:50.222Z,19.87
2019-04-20T12:14:54.819Z,19.70
2019-04-20T12:17:03.776Z,20.04
2019-04-20T12:19:10.734Z,20.30
2019-04-20T12:21:18.728Z,20.64
2019-04-20T12:23:26.486Z,20.62
2019-04-20T12:25:35.918Z,20.41
2019-04-20T12:27:49.713Z,20.12
2019-04-20T12:29:51.960Z,19.92
2019-04-20T12:32:02.248Z,19.41
2019-04-20T12:34:08.459Z,19.32
2019-04-20T12:36:16.345Z,19.47
2019-04-20T12:38:23.220Z,19.75
2019-04-20T12:40:30.166Z,19.43
2019-04-20T12:42:37.108Z,19.42
2019-04-20T12:44:43.839Z,19.54
2019-04-20T12:46:51.895Z,19.37
2019-04-20T12:48:59.789Z,19.10
2019-04-20T12:51:07.822Z,19.18
2019-04-20T12:53:14.877Z,18.92
2019-04-20T12:55:22.855Z,19.47
2019-04-20T12:57:29.669Z,19.25
2019-04-20T12:59:36.338Z,19.14
2019-04-20T13:01:43.744Z,19.43
2019-04-20T13:03:51.648Z,19.84
2019-04-20T13:05:58.491Z,20.16
2019-04-20T13:08:06.187Z,20.38
2019-04-20T13:10:15.844Z,20.63
2019-04-20T13:12:23.502Z,20.52
2019-04-20T13:15:00.319Z,20.30
2019-04-20T13:17:08.313Z,19.66
2019-04-20T13:19:15.210Z,19.39
2019-04-20T13:21:22.986Z,19.28
2019-04-20T13:23:31.017Z,19.32
2019-04-20T13:25:38.906Z,18.73
2019-04-20T13:27:47.045Z,18.56
2019-04-20T13:29:54.686Z,18.58
2019-04-20T13:32:02.714Z,18.87
2019-04-20T13:34:11.473Z,19.36
2019-04-20T13:36:18.168Z,19.54
2019-04-20T13:38:25.819Z,18.97
2019-04-20T13:40:33.432Z,18.57
2019-04-20T13:42:41.411Z,18.60
2019-04-20T13:44:50.685Z,19.20
2019-04-20T13:46:58.527Z,19.27
2019-04-20T13:49:06.926Z,19.81
2019-04-20T13:51:14.724Z,19.58
2019-04-20T13:53:21.651Z,19.65
2019-04-20T13:55:30.141Z,20.22
2019-04-20T13:57:39.963Z,20.46
2019-04-20T13:59:52.140Z,20.27
2019-04-20T14:02:00.848Z,20.54
2019-04-20T14:04:12.751Z,20.63
2019-04-20T14:06:22.389Z,20.69
2019-04-20T14:08:29.717Z,20.94
2019-04-20T14:10:37.672Z,20.96
2019-04-20T14:12:55.442Z,20.76
2019-04-20T14:14:53.268Z,20.83
2019-04-20T14:17:01.214Z,21.31
2019-04-20T14:19:09.191Z,21.44
2019-04-20T14:21:16.347Z,21.40
2019-04-20T14:23:23.281Z,21.20
2019-04-20T14:25:31.176Z,21.18
2019-04-20T14:27:39.056Z,21.44
2019-04-20T14:29:46.457Z,21.55
2019-04-20T14:31:53.124Z,21.73
2019-04-20T14:33:59.877Z,22.10
2019-04-20T14:36:06.648Z,22.39
2019-04-20T14:38:13.313Z,22.26
2019-04-20T14:40:21.992Z,21.85
2019-04-20T14:42:36.475Z,21.94
2019-04-20T14:44:39.480Z,22.39
2019-04-20T14:46:47.552Z,22.42
2019-04-20T14:48:54.630Z,22.34
2019-04-20T14:51:01.587Z,22.29
2019-04-20T14:53:09.482Z,22.04
2019-04-20T14:55:19.415Z,22.08
2019-04-20T14:57:27.539Z,21.98
2019-04-20T14:59:36.058Z,21.88
2019-04-20T15:01:56.769Z,22.20
2019-04-20T15:04:12.849Z,22.27
2019-04-20T15:06:13.724Z,22.62
2019-04-20T15:08:22.829Z,22.77
2019-04-20T15:10:31.100Z,22.87
2019-04-20T15:12:47.351Z,23.19
2019-04-20T15:14:46.834Z,23.50
2019-04-20T15:16:53.701Z,23.71
2019-04-20T15:19:00.182Z,23.76
2019-04-20T15:21:09.341Z,23.48
2019-04-20T15:23:19.406Z,23.60
2019-04-20T15:25:27.397Z,23.42
2019-04-20T15:27:35.204Z,23.25
2019-04-20T15:29:42.244Z,23.44
2019-04-20T15:31:50.105Z,23.77
2019-04-20T15:33:57.109Z,23.55
2019-04-20T15:36:04.264Z,23.75
2019-04-20T15:38:11.268Z,23.76
2019-04-20T15:40:19.334Z,23.77
2019-04-20T15:42:27.499Z,23.53
2019-04-20T15:44:35.578Z,23.48
2019-04-20T15:46:43.507Z,23.78
2019-04-20T15:48:50.378Z,23.88
2019-04-20T15:50:58.875Z,24.19
2019-04-20T15:53:06.009Z,24.33
2019-04-20T15:55:22.624Z,24.34
2019-04-20T15:57:27.630Z,24.36
2019-04-20T15:59:32.982Z,24.45
2019-04-20T16:01:47.270Z,24.49
2019-04-20T16:03:57.236Z,24.53
2019-04-20T16:06:07.329Z,24.37
2019-04-20T16:08:16.275Z,24.43
2019-04-20T16:10:23.342Z,24.62
2019-04-20T16:12:31.085Z,24.71
2019-04-20T16:14:39.528Z,24.90
2019-04-20T16:16:46.634Z,25.00
2019-04-20T16:18:54.904Z,24.89
2019-04-20T16:21:07.872Z,25.04
2019-04-20T16:23:10.372Z,24.42
2019-04-20T16:25:21.589Z,24.67
2019-04-20T16:27:28.077Z,24.86
2019-04-20T16:29:37.767Z,24.99
2019-04-20T16:31:48.108Z,25.17
2019-04-20T16:33:56.465Z,25.01
2019-04-20T16:36:02.608Z,25.06
2019-04-20T16:38:10.723Z,25.30
2019-04-20T16:40:17.796Z,25.35
2019-04-20T16:42:24.527Z,25.35
2019-04-20T16:44:31.419Z,25.43
2019-04-20T16:46:38.403Z,25.61
2019-04-20T16:48:46.280Z,25.60
2019-04-20T16:50:55.180Z,25.90
2019-04-20T16:53:01.317Z,25.92
2019-04-20T16:55:11.280Z,25.86
2019-04-20T16:57:17.713Z,25.99
2019-04-20T16:59:24.787Z,26.30
2019-04-20T17:01:31.773Z,26.13
2019-04-20T17:03:49.296Z,26.06
2019-04-20T17:05:49.750Z,26.12
2019-04-20T17:07:57.403Z,26.37
2019-04-20T17:10:07.500Z,26.40
2019-04-20T17:12:15.419Z,26.43
2019-04-20T17:14:23.740Z,26.17
2019-04-20T17:16:31.655Z,26.41
2019-04-20T17:18:39.346Z,26.29
2019-04-20T17:20:46.585Z,26.70
2019-04-20T17:22:54.268Z,26.62
2019-04-20T17:25:01.838Z,26.66
2019-04-20T17:27:10.863Z,26.42
2019-04-20T17:29:22.120Z,26.67
2019-04-20T17:31:31.550Z,26.80
2019-04-20T17:33:50.492Z,27.31
2019-04-20T17:35:59.116Z,27.17
2019-04-20T17:37:58.384Z,27.19
2019-04-20T17:40:27.179Z,27.25
2019-04-20T17:42:32.451Z,27.34
2019-04-20T17:44:36.105Z,27.46
2019-04-20T17:46:41.936Z,27.62
2019-04-20T17:48:59.698Z,27.69
2019-04-20T17:51:15.655Z,27.94
2019-04-20T17:53:08.919Z,28.02
2019-04-20T17:55:32.248Z,28.23
2019-04-20T17:57:33.579Z,28.43
2019-04-20T17:59:44.824Z,28.56
2019-04-20T18:02:05.450Z,28.82
2019-04-20T18:04:31.074Z,28.94
2019-04-20T18:06:28.906Z,29.07
2019-04-20T18:08:36.933Z,29.19
2019-04-20T18:10:44.123Z,29.55
2019-04-20T18:12:43.955Z,29.51
2019-04-20T18:14:58.454Z,29.57
2019-04-20T18:17:21.473Z,29.68
2019-04-20T18:19:25.691Z,29.87
2019-04-20T18:21:34.873Z,29.93
2019-04-20T18:23:46.261Z,29.97
2019-04-20T18:26:15.234Z,30.07
2019-04-20T18:28:13.802Z,30.22
2019-04-20T18:30:27.435Z,30.24
2019-04-20T18:32:38.286Z,30.34
2019-04-20T18:34:54.139Z,30.52
2019-04-20T18:36:56.387Z,30.69
2019-04-20T18:39:07.975Z,30.72
2019-04-20T18:41:23.130Z,30.80
2019-04-20T18:43:23.952Z,30.94
2019-04-20T18:45:48.129Z,30.92
2019-04-20T18:48:03.979Z,31.18
2019-04-20T18:49:58.554Z,31.24
2019-04-20T18:51:57.768Z,31.49
2019-04-20T18:54:08.310Z,31.51
2019-04-20T18:56:19.028Z,31.69
2019-04-20T18:58:22.848Z,31.76
2019-04-20T19:00:33.746Z,31.82
2019-04-20T19:02:42.878Z,31.82
2019-04-20T19:04:47.982Z,31.97
2019-04-20T19:06:56.058Z,32.19
2019-04-20T19:09:09.461Z,32.43
2019-04-20T19:11:17.821Z,32.41
2019-04-20T19:13:34.156Z,32.81
2019-04-20T19:16:09.334Z,32.92
2019-04-20T19:18:17.242Z,33.04
2019-04-20T19:20:16.057Z,33.26
2019-04-20T19:22:23.931Z,33.44
2019-04-20T19:24:33.561Z,33.66
2019-04-20T19:26:46.657Z,33.94
2019-04-20T19:28:53.895Z,34.46
2019-04-20T19:31:11.437Z,34.44
2019-04-20T19:33:24.623Z,34.48
2019-04-20T19:35:30.855Z,34.53
2019-04-20T19:37:31.151Z,34.85
2019-04-20T19:39:50.980Z,34.93
2019-04-20T19:41:51.701Z,35.36
2019-04-20T19:44:03.999Z,35.22
2019-04-20T19:46:39.286Z,35.56
2019-04-20T19:48:21.989Z,35.53
2019-04-20T19:50:54.707Z,36.86
2019-04-20T19:52:51.642Z,35.78
2019-04-20T19:54:56.860Z,35.93
2019-04-20T19:56:58.559Z,35.80
2019-04-20T19:59:07.165Z,35.97
2019-04-20T20:01:03.632Z,35.93
2019-04-20T20:03:10.367Z,35.95
2019-04-20T20:05:19.297Z,36.03
2019-04-20T20:07:32.140Z,36.09
2019-04-20T20:09:41.829Z,36.20
2019-04-20T20:11:46.785Z,36.21
2019-04-20T20:13:56.834Z,36.19
2019-04-20T20:16:10.538Z,36.17
2019-04-20T20:18:30.932Z,36.32
2019-04-20T20:20:44.142Z,36.19
2019-04-20T20:22:37.767Z,36.31
2019-04-20T20:24:38.904Z,36.38
2019-04-20T20:26:52.663Z,36.53
2019-04-20T20:29:09.294Z,36.63
2019-04-20T20:31:17.141Z,36.76
2019-04-20T20:33:32.781Z,36.77
2019-04-20T20:35:25.985Z,37.15
2019-04-20T20:37:39.188Z,37.38
2019-04-20T20:39:42.124Z,37.37
2019-04-20T20:41:57.823Z,37.54
2019-04-20T20:44:03.665Z,37.76
2019-04-20T20:46:18.516Z,37.76
2019-04-20T20:48:29.783Z,37.63
2019-04-20T20:50:41.066Z,37.67
2019-04-20T20:52:47.023Z,37.73
2019-04-20T20:54:49.499Z,37.85
2019-04-20T20:56:55.590Z,37.96
2019-04-20T20:59:03.992Z,38.08
2019-04-20T21:01:14.422Z,38.31
2019-04-20T21:03:22.186Z,38.42
2019-04-20T21:05:21.948Z,38.41
2019-04-20T21:07:28.909Z,38.69
2019-04-20T21:09:35.591Z,38.83
2019-04-20T21:11:42.392Z,38.72
2019-04-20T21:13:52.129Z,38.84
2019-04-20T21:16:03.490Z,38.71
2019-04-20T21:18:29.410Z,38.76
2019-04-20T21:20:38.235Z,38.97
2019-04-20T21:22:46.661Z,38.89
2019-04-20T21:24:35.716Z,38.98
2019-04-20T21:26:44.228Z,39.00
2019-04-20T21:28:52.255Z,39.04
2019-04-20T21:31:08.305Z,39.06
2019-04-20T21:33:09.318Z,38.96
2019-04-20T21:35:16.527Z,38.89
2019-04-20T21:37:27.043Z,39.06
2019-04-20T21:39:43.669Z,39.01
2019-04-20T21:41:50.939Z,39.10
2019-04-20T21:43:49.927Z,39.12
2019-04-20T21:46:01.765Z,39.32
2019-04-20T21:48:10.011Z,39.34
2019-04-20T21:50:34.174Z,39.51
2019-04-20T21:52:31.744Z,39.64
2019-04-20T21:54:30.006Z,39.87
2019-04-20T21:56:38.342Z,39.95
2019-04-20T21:58:51.372Z,40.06
2019-04-20T22:01:10.915Z,39.98
2019-04-20T22:03:09.856Z,39.90
2019-04-20T22:05:13.661Z,39.84
2019-04-20T22:07:20.747Z,39.91
2019-04-20T22:09:34.554Z,40.00
2019-04-20T22:11:37.924Z,39.98
2019-04-20T22:13:47.422Z,39.98
2019-04-20T22:15:58.575Z,40.08
2019-04-20T22:18:07.958Z,40.30
2019-04-20T22:20:22.736Z,40.62
2019-04-20T22:22:39.784Z,40.42
2019-04-20T22:24:42.147Z,40.35
2019-04-20T22:26:51.384Z,40.40
2019-04-20T22:28:44.615Z,40.71
2019-04-20T22:30:51.591Z,40.81
2019-04-20T22:33:00.982Z,40.67
2019-04-20T22:35:12.597Z,40.80
2019-04-20T22:37:22.981Z,40.88
2019-04-20T22:39:39.082Z,40.88
2019-04-20T22:41:40.954Z,40.95
2019-04-20T22:43:50.422Z,41.10
2019-04-20T22:45:57.298Z,40.97
2019-04-20T22:48:08.332Z,41.14
2019-04-20T22:50:25.485Z,41.21
2019-04-20T22:52:34.893Z,41.26
2019-04-20T22:54:47.805Z,41.35
2019-04-20T22:56:50.907Z,41.41
2019-04-20T22:58:56.339Z,41.41
2019-04-20T23:01:01.016Z,41.52
2019-04-20T23:03:03.019Z,41.61
2019-04-20T23:05:10.942Z,41.84
2019-04-20T23:07:18.833Z,41.98
2019-04-20T23:09:26.800Z,42.12
2019-04-20T23:11:35.316Z,42.67
2019-04-20T23:13:44.965Z,42.57
2019-04-20T23:15:55.400Z,42.58
2019-04-20T23:18:00.074Z,42.72
2019-04-20T23:20:15.139Z,42.72
2019-04-20T23:22:17.845Z,42.83
2019-04-20T23:24:24.854Z,42.88
2019-04-20T23:26:36.824Z,42.88
2019-04-20T23:28:46.901Z,43.05
2019-04-20T23:30:51.904Z,43.29
2019-04-20T23:32:57.870Z,43.25
2019-04-20T23:35:11.877Z,43.10
2019-04-20T23:37:20.403Z,43.16
2019-04-20T23:39:29.085Z,43.36
2019-04-20T23:41:31.621Z,43.25
2019-04-20T23:43:49.313Z,43.41
2019-04-20T23:46:16.998Z,43.40
2019-04-20T23:48:30.478Z,43.42
2019-04-20T23:50:47.578Z,43.58
2019-04-20T23:53:01.349Z,43.72
2019-04-20T23:54:58.142Z,43.56
2019-04-20T23:56:57.754Z,43.98
2019-04-20T23:59:04.688Z,43.79
